Time;durP1;ratioP1;P1;durP2;ratioP2;P2;SDS_P1;SDS_P2;PMS_P1;PMS_P2;Temp;Humidity;BMP_temperature;BMP_pressure;BME280_temperature;BME280_humidity;BME280_pressure;Samples;Min_cycle;Max_cycle;Signal;HPM_P1;HPM_P2
2021/06/21 00:00:31;;;;;;;7.60;6.85;;;;;;;22.64;66.16;99906.84;5129459;28;20455;-65
2021/06/21 00:02:58;;;;;;;8.27;7.32;;;;;;;22.60;66.36;99911.81;5128505;28;20206;-65
2021/06/21 00:05:24;;;;;;;7.60;6.90;;;;;;;22.58;66.54;99910.34;5126273;28;20209;-65
2021/06/21 00:07:51;;;;;;;8.30;6.88;;;;;;;22.56;66.67;99907.00;5111587;28;20223;-65
2021/06/21 00:10:18;;;;;;;8.10;7.10;;;;;;;22.54;66.96;99911.78;5110355;28;20199;-65
2021/06/21 00:12:46;;;;;;;8.23;6.53;;;;;;;22.51;67.00;99916.56;5109864;28;20260;-65
2021/06/21 00:15:15;;;;;;;8.30;7.50;;;;;;;22.50;67.55;99912.16;5113200;28;20206;-65
2021/06/21 00:17:43;;;;;;;7.88;7.07;;;;;;;22.51;67.61;99910.28;5109290;28;20235;-65
2021/06/21 00:20:10;;;;;;;8.10;7.18;;;;;;;22.49;67.74;99915.06;5105381;28;20206;-66
2021/06/21 00:22:37;;;;;;;8.13;7.38;;;;;;;22.45;67.93;99906.44;5113114;28;20211;-65
2021/06/21 00:25:04;;;;;;;8.30;7.50;;;;;;;22.42;68.27;99912.25;5109719;28;20205;-65
2021/06/21 00:27:32;;;;;;;8.13;7.32;;;;;;;22.38;68.34;99902.00;5112626;28;20223;-66
2021/06/21 00:29:59;;;;;;;9.18;7.50;;;;;;;22.32;68.60;99892.75;5112211;28;20207;-65
2021/06/21 00:32:25;;;;;;;8.55;7.65;;;;;;;22.27;68.99;99886.19;5105655;28;20210;-66
2021/06/21 00:34:53;;;;;;;8.32;7.53;;;;;;;22.19;69.26;99873.63;5112803;28;20564;-66
2021/06/21 00:37:19;;;;;;;10.80;8.23;;;;;;;22.15;69.48;99877.72;5118480;27;20238;-66
2021/06/21 00:39:46;;;;;;;8.93;7.50;;;;;;;22.11;69.92;99890.81;5116893;27;20216;-66
2021/06/21 00:42:13;;;;;;;8.30;7.50;;;;;;;22.08;70.11;99882.22;5112962;28;20204;-66
2021/06/21 00:44:39;;;;;;;10.50;8.27;;;;;;;22.04;70.47;99891.75;5113666;28;20215;-66
2021/06/21 00:47:06;;;;;;;8.90;8.00;;;;;;;22.01;71.12;99887.56;5113787;28;20218;-66
2021/06/21 00:49:32;;;;;;;8.38;7.53;;;;;;;21.99;71.19;99891.47;5108325;28;20219;-66
2021/06/21 00:52:01;;;;;;;8.93;8.02;;;;;;;21.98;71.41;99896.06;5100236;28;20691;-66
2021/06/21 00:54:28;;;;;;;9.38;8.43;;;;;;;21.96;71.66;99902.69;5101675;28;20686;-66
2021/06/21 00:56:55;;;;;;;9.33;8.23;;;;;;;21.94;71.88;99910.16;5112818;28;20630;-66
2021/06/21 00:59:22;;;;;;;9.27;8.32;;;;;;;21.90;72.00;99909.69;5110801;28;20368;-66
2021/06/21 01:01:48;;;;;;;8.30;7.50;;;;;;;21.87;72.08;99912.78;5102684;28;20211;-66
2021/06/21 01:04:15;;;;;;;8.57;7.65;;;;;;;21.82;72.11;99924.22;5111306;28;20576;-66
2021/06/21 01:06:41;;;;;;;11.02;8.18;;;;;;;21.78;72.25;99922.06;5106013;28;20227;-66
2021/06/21 01:09:09;;;;;;;9.93;8.00;;;;;;;21.74;72.63;99918.03;5105930;28;20198;-66
2021/06/21 01:11:49;;;;;;;11.90;9.57;;;;;;;21.70;72.50;99916.72;5106386;28;20242;-66
2021/06/21 01:14:22;;;;;;;10.18;8.73;;;;;;;21.64;72.75;99920.19;5100890;28;20207;-67
2021/06/21 01:16:55;;;;;;;12.87;9.53;;;;;;;21.59;73.13;99919.88;5106112;28;20703;-66
2021/06/21 01:19:40;;;;;;;10.38;8.82;;;;;;;21.52;73.46;99908.94;5108979;28;20689;-66
2021/06/21 01:22:48;;;;;;;10.67;9.60;;;;;;;21.45;73.42;99911.56;5110265;28;20206;-66
2021/06/21 01:25:29;;;;;;;10.60;9.50;;;;;;;21.38;73.78;99916.03;5102895;28;20228;-66
2021/06/21 01:28:01;;;;;;;11.67;10.47;;;;;;;21.35;74.37;99899.31;5106012;28;20297;-66
2021/06/21 01:30:42;;;;;;;11.37;10.30;;;;;;;21.28;74.27;99891.09;5104403;28;20239;-66
2021/06/21 01:33:12;;;;;;;12.27;11.07;;;;;;;21.24;74.64;99876.22;5110875;28;20210;-66
2021/06/21 01:35:42;;;;;;;12.17;10.97;;;;;;;21.23;75.20;99871.00;5111959;28;20563;-67
2021/06/21 01:38:13;;;;;;;11.60;10.47;;;;;;;21.21;75.18;99864.91;5112467;28;20221;-66
2021/06/21 01:40:43;;;;;;;12.10;10.70;;;;;;;21.15;75.52;99861.88;5107458;28;20213;-66
2021/06/21 01:43:14;;;;;;;12.30;11.07;;;;;;;21.11;75.38;99855.19;5105192;28;20212;-66
2021/06/21 01:45:42;;;;;;;12.60;11.40;;;;;;;21.09;75.48;99845.56;5108863;28;20209;-66
2021/06/21 01:48:12;;;;;;;12.27;11.10;;;;;;;21.06;75.68;99844.06;5106752;28;20209;-66
2021/06/21 01:50:40;;;;;;;12.57;11.27;;;;;;;21.04;75.72;99829.00;5109535;28;20204;-66
2021/06/21 01:53:10;;;;;;;12.23;10.87;;;;;;;21.02;76.09;99826.47;5106896;28;20202;-67
2021/06/21 01:55:42;;;;;;;12.63;11.53;;;;;;;21.02;76.15;99814.81;5104381;28;20201;-67
2021/06/21 01:58:11;;;;;;;12.30;11.17;;;;;;;21.00;76.28;99800.63;5111965;28;20709;-67
2021/06/21 02:00:39;;;;;;;13.00;11.77;;;;;;;21.00;76.38;99803.31;5109687;28;20566;-66
2021/06/21 02:03:07;;;;;;;11.83;10.63;;;;;;;20.99;76.55;99798.94;5103431;28;20207;-67
2021/06/21 02:05:37;;;;;;;13.13;11.93;;;;;;;20.98;76.69;99811.63;5104804;28;20213;-66
2021/06/21 02:08:05;;;;;;;13.70;12.40;;;;;;;20.96;76.85;99812.88;5104459;28;20228;-67
2021/06/21 02:10:33;;;;;;;13.30;11.57;;;;;;;20.94;76.84;99815.75;5107446;28;20699;-66
2021/06/21 02:13:00;;;;;;;13.75;12.38;;;;;;;20.94;77.34;99807.63;5103446;28;20207;-67
2021/06/21 02:15:29;;;;;;;12.20;11.00;;;;;;;20.97;77.40;99792.88;5108863;28;20200;-66
2021/06/21 02:17:56;;;;;;;13.50;11.80;;;;;;;20.97;77.25;99796.41;5105576;28;20689;-67
2021/06/21 02:20:23;;;;;;;15.20;13.77;;;;;;;20.97;77.24;99793.69;5108438;28;20214;-66
2021/06/21 02:22:51;;;;;;;12.80;11.50;;;;;;;20.98;77.38;99799.97;5096858;28;20204;-66
2021/06/21 02:25:19;;;;;;;13.77;12.37;;;;;;;20.96;77.14;99807.44;5107664;28;20201;-67
2021/06/21 02:27:47;;;;;;;12.33;11.23;;;;;;;20.92;77.03;99822.38;5109473;28;20697;-67
2021/06/21 02:30:15;;;;;;;12.77;11.50;;;;;;;20.87;77.11;99827.50;5106866;28;20217;-67
2021/06/21 02:32:44;;;;;;;13.73;12.33;;;;;;;20.85;77.44;99832.25;5108911;28;20578;-67
2021/06/21 02:35:12;;;;;;;13.20;12.00;;;;;;;20.82;77.58;99822.63;5102801;28;20205;-67
2021/06/21 02:37:39;;;;;;;13.27;12.07;;;;;;;20.79;77.39;99828.38;5106390;28;20606;-67
2021/06/21 02:40:09;;;;;;;13.37;12.07;;;;;;;20.76;77.58;99828.78;5110856;28;20288;-67
2021/06/21 02:42:36;;;;;;;13.53;12.23;;;;;;;20.74;77.76;99820.00;5104360;28;20215;-65
2021/06/21 02:45:03;;;;;;;13.50;12.13;;;;;;;20.73;78.04;99818.31;5107115;28;20677;-65
2021/06/21 02:47:30;;;;;;;14.23;12.77;;;;;;;20.73;77.89;99823.72;5105986;28;20225;-69
2021/06/21 02:49:57;;;;;;;14.00;12.60;;;;;;;20.70;78.06;99819.53;5108472;28;20198;-65
2021/06/21 02:52:29;;;;;;;14.33;12.50;;;;;;;20.68;78.06;99820.72;5106690;28;20214;-65
2021/06/21 02:55:09;;;;;;;13.07;11.87;;;;;;;20.63;78.25;99813.13;5108567;28;20203;-68
2021/06/21 02:57:50;;;;;;;14.00;12.70;;;;;;;20.61;78.35;99815.19;5107521;28;20238;-66
2021/06/21 03:00:16;;;;;;;13.57;12.27;;;;;;;20.57;78.64;99813.03;5101889;28;20670;-66
2021/06/21 03:02:44;;;;;;;14.53;13.03;;;;;;;20.56;79.03;99812.19;5102057;28;20211;-66
2021/06/21 03:05:11;;;;;;;15.30;13.90;;;;;;;20.55;79.23;99801.56;5109227;28;20197;-65
2021/06/21 03:07:39;;;;;;;15.43;13.93;;;;;;;20.52;79.16;99805.47;5098217;28;20309;-65
2021/06/21 03:10:07;;;;;;;14.60;13.10;;;;;;;20.50;79.19;99802.09;5111085;28;20197;-65
2021/06/21 03:12:34;;;;;;;14.83;13.43;;;;;;;20.49;79.57;99805.81;5103078;28;20215;-66
2021/06/21 03:15:03;;;;;;;13.53;12.33;;;;;;;20.51;79.45;99814.59;5109228;28;20206;-66
2021/06/21 03:17:34;;;;;;;13.60;12.07;;;;;;;20.51;79.78;99811.91;5109886;28;20325;-66
2021/06/21 03:20:01;;;;;;;13.97;12.77;;;;;;;20.51;79.60;99808.34;5104695;28;20202;-66
2021/06/21 03:22:29;;;;;;;14.83;13.33;;;;;;;20.53;79.52;99811.72;5105512;28;20679;-66
2021/06/21 03:24:56;;;;;;;13.80;12.57;;;;;;;20.53;79.49;99809.00;5110639;28;20217;-65
2021/06/21 03:27:30;;;;;;;14.63;13.33;;;;;;;20.54;79.68;99810.69;5109852;28;20602;-66
2021/06/21 03:29:58;;;;;;;14.57;13.23;;;;;;;20.52;79.55;99800.06;5106036;28;20205;-66
2021/06/21 03:32:29;;;;;;;13.40;12.20;;;;;;;20.50;79.41;99802.09;5100918;28;20205;-65
2021/06/21 03:34:58;;;;;;;13.73;12.33;;;;;;;20.48;79.56;99798.72;5105954;28;20196;-65
2021/06/21 03:37:25;;;;;;;13.50;12.30;;;;;;;20.47;79.65;99797.03;5106652;28;20234;-65
2021/06/21 03:39:52;;;;;;;14.07;12.67;;;;;;;20.48;80.15;99792.47;5106857;28;20222;-66
2021/06/21 03:42:19;;;;;;;14.27;12.77;;;;;;;20.46;79.99;99784.53;5104863;28;20677;-66
2021/06/21 03:44:45;;;;;;;14.67;13.33;;;;;;;20.47;80.11;99790.78;5107470;28;20205;-66
2021/06/21 03:47:12;;;;;;;15.80;14.27;;;;;;;20.47;80.01;99780.81;5107838;28;20715;-67
2021/06/21 03:49:42;;;;;;;14.50;13.10;;;;;;;20.48;80.08;99774.38;5105740;28;20258;-67
2021/06/21 03:52:09;;;;;;;12.57;11.47;;;;;;;20.48;80.10;99771.69;5106348;28;20661;-67
2021/06/21 03:54:35;;;;;;;13.07;11.77;;;;;;;20.48;79.97;99754.59;5106427;28;20202;-67
2021/06/21 03:57:02;;;;;;;13.00;11.80;;;;;;;20.48;80.47;99744.63;5106576;28;20241;-67
2021/06/21 03:59:28;;;;;;;12.10;11.10;;;;;;;20.46;80.54;99746.69;5107145;28;20230;-65
2021/06/21 04:01:56;;;;;;;13.10;11.80;;;;;;;20.48;80.68;99746.50;5105632;28;20598;-66
2021/06/21 04:04:23;;;;;;;13.97;12.77;;;;;;;20.49;80.81;99740.91;5107081;28;20218;-67
2021/06/21 04:06:51;;;;;;;12.67;11.50;;;;;;;20.48;80.96;99746.50;5106522;28;20239;-66
2021/06/21 04:09:17;;;;;;;12.43;11.33;;;;;;;20.47;80.88;99755.63;5107906;28;20582;-66
2021/06/21 04:11:45;;;;;;;12.47;11.33;;;;;;;20.50;81.03;99757.97;5105560;28;20211;-66
2021/06/21 04:14:12;;;;;;;12.83;11.63;;;;;;;20.50;80.93;99749.88;5104612;28;20218;-67
2021/06/21 04:16:39;;;;;;;13.00;11.87;;;;;;;20.48;80.87;99750.03;5103991;28;20234;-66
2021/06/21 04:19:05;;;;;;;13.80;12.60;;;;;;;20.47;81.07;99750.22;5102486;28;20233;-66
2021/06/21 04:21:32;;;;;;;13.70;12.50;;;;;;;20.48;81.36;99752.75;5102296;28;20204;-66
2021/06/21 04:24:00;;;;;;;12.10;11.10;;;;;;;20.50;81.31;99753.41;5104812;28;20631;-66
2021/06/21 04:26:26;;;;;;;12.23;11.23;;;;;;;20.49;81.32;99749.03;5106346;28;20232;-66
2021/06/21 04:28:53;;;;;;;12.03;11.03;;;;;;;20.49;81.54;99750.88;5107618;28;20200;-67
2021/06/21 04:31:19;;;;;;;10.80;9.80;;;;;;;20.48;81.31;99741.94;5104539;28;20206;-66
2021/06/21 04:33:46;;;;;;;11.93;10.73;;;;;;;20.47;81.59;99734.84;5104037;28;20214;-66
2021/06/21 04:36:13;;;;;;;11.70;10.70;;;;;;;20.46;81.32;99735.84;5103533;28;20230;-66
2021/06/21 04:38:39;;;;;;;11.90;10.90;;;;;;;20.46;81.71;99725.03;5102355;28;20230;-67
2021/06/21 04:41:07;;;;;;;11.30;10.30;;;;;;;20.48;81.81;99732.97;5099410;28;20582;-66
2021/06/21 04:43:34;;;;;;;11.80;10.80;;;;;;;20.50;81.73;99737.19;5101939;28;20211;-67
2021/06/21 04:46:03;;;;;;;12.03;10.97;;;;;;;20.53;81.98;99742.22;5104077;28;20233;-65
2021/06/21 04:48:30;;;;;;;11.13;10.13;;;;;;;20.53;81.80;99746.78;5101983;28;20661;-66
2021/06/21 04:50:57;;;;;;;12.33;11.20;;;;;;;20.52;81.91;99745.94;5105609;28;20202;-65
2021/06/21 04:53:23;;;;;;;11.00;10.00;;;;;;;20.50;81.59;99736.34;5101929;28;20204;-66
2021/06/21 04:55:50;;;;;;;11.30;10.27;;;;;;;20.50;81.70;99734.47;5103851;28;20200;-66
2021/06/21 04:58:18;;;;;;;12.23;11.23;;;;;;;20.51;81.68;99722.63;5108674;28;20199;-65
2021/06/21 05:00:45;;;;;;;12.30;11.07;;;;;;;20.53;81.76;99728.69;5105911;28;20221;-66
2021/06/21 05:03:11;;;;;;;11.50;10.50;;;;;;;20.55;81.70;99729.38;5105217;28;20219;-66
2021/06/21 05:05:38;;;;;;;12.00;10.90;;;;;;;20.57;81.79;99735.44;5109466;28;20584;-66
2021/06/21 05:08:06;;;;;;;11.30;10.30;;;;;;;20.62;81.65;99734.84;5110766;28;20263;-66
2021/06/21 05:10:32;;;;;;;9.33;8.53;;;;;;;20.65;81.46;99732.63;5105985;28;20205;-65
2021/06/21 05:12:59;;;;;;;10.57;9.67;;;;;;;20.67;81.34;99721.63;5109889;28;20209;-66
2021/06/21 05:15:27;;;;;;;11.20;10.10;;;;;;;20.69;81.32;99720.44;5104429;27;20208;-65
2021/06/21 05:17:55;;;;;;;8.20;7.43;;;;;;;20.73;81.36;99721.75;5112573;28;20229;-66
2021/06/21 05:20:21;;;;;;;7.27;6.60;;;;;;;20.77;81.44;99730.34;5107799;28;20248;-65
2021/06/21 05:22:51;;;;;;;6.30;5.73;;;;;;;20.79;81.22;99734.50;5106739;28;20203;-66
2021/06/21 05:25:18;;;;;;;7.03;6.43;;;;;;;20.83;81.08;99734.16;5111446;28;20196;-67
2021/06/21 05:27:45;;;;;;;6.93;6.43;;;;;;;20.86;80.81;99741.91;5111639;28;20224;-66
2021/06/21 05:30:13;;;;;;;6.67;6.13;;;;;;;20.87;80.84;99743.59;5108744;28;20202;-66
2021/06/21 05:32:41;;;;;;;6.37;5.53;;;;;;;20.88;80.75;99746.09;5103348;28;20202;-66
2021/06/21 05:35:11;;;;;;;5.77;4.97;;;;;;;20.89;80.25;99745.09;5105437;28;20226;-71
2021/06/21 05:37:37;;;;;;;4.97;4.57;;;;;;;20.92;80.44;99746.59;5108296;28;20225;-71
2021/06/21 05:40:05;;;;;;;6.13;5.63;;;;;;;20.93;80.37;99746.41;5103389;28;20597;-71
2021/06/21 05:42:31;;;;;;;6.00;5.47;;;;;;;20.95;80.19;99740.81;5107436;28;20206;-71
2021/06/21 05:44:59;;;;;;;6.10;5.60;;;;;;;20.97;80.07;99733.31;5112514;28;20205;-71
2021/06/21 05:47:25;;;;;;;6.97;6.33;;;;;;;21.01;80.02;99723.78;5109305;28;20237;-71
2021/06/21 05:49:53;;;;;;;7.13;6.53;;;;;;;21.05;79.87;99719.69;5111377;28;20211;-71
2021/06/21 05:52:20;;;;;;;7.13;6.53;;;;;;;21.09;79.83;99716.44;5108613;28;20206;-71
2021/06/21 05:54:46;;;;;;;6.80;6.20;;;;;;;21.17;79.74;99720.91;5112869;28;20584;-70
2021/06/21 05:57:13;;;;;;;6.57;6.00;;;;;;;21.24;79.67;99711.03;5135291;22;20236;-76
2021/06/21 05:59:40;;;;;;;6.20;5.70;;;;;;;21.32;79.04;99716.34;5104979;27;20230;-75
2021/06/21 06:02:06;;;;;;;6.87;6.17;;;;;;;21.36;78.93;99716.81;5114662;27;20577;-72
2021/06/21 06:04:33;;;;;;;6.30;5.80;;;;;;;21.37;78.72;99719.31;5110202;28;20222;-72
2021/06/21 06:07:00;;;;;;;6.37;5.87;;;;;;;21.39;78.64;99730.81;5104430;28;20230;-72
2021/06/21 06:09:27;;;;;;;6.63;6.03;;;;;;;21.41;78.41;99736.03;5077975;28;20206;-75
2021/06/21 06:11:53;;;;;;;6.90;6.30;;;;;;;21.43;78.59;99734.00;5078633;28;20225;-73
2021/06/21 06:14:20;;;;;;;6.80;6.20;;;;;;;21.46;78.54;99731.75;5079562;28;20211;-73
2021/06/21 06:16:47;;;;;;;6.43;5.93;;;;;;;21.51;78.33;99738.44;5083719;28;20223;-75
2021/06/21 06:19:14;;;;;;;6.40;5.80;;;;;;;21.52;78.02;99727.41;5080614;28;20230;-75
2021/06/21 06:21:42;;;;;;;7.67;5.17;;;;;;;21.51;77.92;99730.31;5071824;28;20238;-73
2021/06/21 06:24:12;;;;;;;5.23;4.73;;;;;;;21.48;77.67;99731.56;5083437;28;20717;-72
2021/06/21 06:26:39;;;;;;;5.87;5.37;;;;;;;21.46;77.75;99739.88;5082169;28;20231;-72
2021/06/21 06:29:06;;;;;;;6.10;5.50;;;;;;;21.49;77.91;99727.81;5074767;28;20210;-72
2021/06/21 06:31:32;;;;;;;5.50;4.90;;;;;;;21.52;78.01;99729.28;5081285;28;20218;-71
2021/06/21 06:33:59;;;;;;;6.07;5.47;;;;;;;21.54;77.76;99727.22;5075835;28;20208;-73
2021/06/21 06:36:26;;;;;;;5.53;5.13;;;;;;;21.54;77.64;99719.09;5080587;28;20203;-75
2021/06/21 06:38:52;;;;;;;7.27;5.30;;;;;;;21.53;77.71;99720.97;5079096;28;20249;-74
2021/06/21 06:41:21;;;;;;;6.20;5.70;;;;;;;21.55;77.96;99726.19;5081678;28;20202;-74
2021/06/21 06:43:47;;;;;;;7.93;6.00;;;;;;;21.58;77.78;99726.66;5079121;28;20293;-75
2021/06/21 06:46:14;;;;;;;7.50;6.30;;;;;;;21.56;77.57;99725.19;5079129;28;20202;-74
2021/06/21 06:48:40;;;;;;;10.68;6.93;;;;;;;21.54;77.36;99728.06;5079799;28;20672;-73
2021/06/21 06:51:07;;;;;;;7.22;6.63;;;;;;;21.56;77.46;99719.75;5073052;28;20211;-74
2021/06/21 06:53:39;;;;;;;8.57;6.07;;;;;;;21.57;77.74;99718.72;5084625;28;20295;-75
2021/06/21 06:58:52;;;;;;;6.50;5.83;;;;;;;21.60;77.53;99705.66;5086957;28;20203;-75
2021/06/21 07:01:18;;;;;;;8.30;7.00;;;;;;;21.63;77.78;99702.56;5093637;28;20662;-74
2021/06/21 07:03:45;;;;;;;6.93;6.22;;;;;;;21.68;77.36;99707.38;5073529;28;20214;-74
2021/06/21 07:06:12;;;;;;;9.07;6.47;;;;;;;21.71;77.40;99709.72;5086108;28;20207;-74
2021/06/21 07:08:39;;;;;;;7.43;6.40;;;;;;;21.74;77.32;99710.19;5073107;28;20211;-76
2021/06/21 07:11:05;;;;;;;7.43;6.73;;;;;;;21.76;77.42;99718.13;5085523;28;20203;-74
2021/06/21 07:13:32;;;;;;;8.00;7.20;;;;;;;21.79;77.38;99720.44;5079096;28;20206;-74
2021/06/21 07:16:00;;;;;;;7.60;6.17;;;;;;;21.80;77.40;99714.84;5079050;28;20209;-75
2021/06/21 07:18:26;;;;;;;8.57;7.53;;;;;;;21.85;77.35;99725.13;5082288;28;20225;-75
2021/06/21 07:20:53;;;;;;;6.97;5.53;;;;;;;21.90;77.22;99716.38;5078144;28;20604;-74
2021/06/21 07:23:19;;;;;;;6.23;5.53;;;;;;;21.91;77.13;99715.34;5071867;28;20218;-74
2021/06/21 07:25:46;;;;;;;5.72;5.18;;;;;;;21.93;76.72;99721.41;5078359;28;20209;-74
2021/06/21 07:28:15;;;;;;;6.68;5.78;;;;;;;21.98;77.05;99722.53;5075166;28;20224;-74
2021/06/21 07:30:42;;;;;;;7.15;6.13;;;;;;;22.09;77.42;99708.47;5085376;28;20257;-74
2021/06/21 07:33:10;;;;;;;6.50;5.90;;;;;;;22.21;76.93;99713.41;5082569;28;20200;-73
2021/06/21 07:35:39;;;;;;;7.97;5.20;;;;;;;22.27;76.72;99709.88;5090815;28;20211;-73
2021/06/21 07:38:06;;;;;;;6.28;5.60;;;;;;;22.34;76.81;99719.78;5076376;28;20230;-75
2021/06/21 07:40:33;;;;;;;8.95;5.80;;;;;;;22.39;76.39;99720.00;5088134;28;20272;-74
2021/06/21 07:43:00;;;;;;;7.40;5.60;;;;;;;22.47;76.10;99721.75;5080695;28;20287;-73
2021/06/21 07:45:26;;;;;;;8.50;6.10;;;;;;;22.49;75.79;99720.53;5083742;28;20329;-74
2021/06/21 07:47:54;;;;;;;7.80;5.90;;;;;;;22.56;75.91;99730.59;5084595;28;20617;-74
2021/06/21 07:50:22;;;;;;;6.95;5.70;;;;;;;22.62;75.63;99725.22;5075005;28;20567;-75
2021/06/21 07:52:49;;;;;;;6.90;5.13;;;;;;;22.68;75.25;99719.00;5069700;28;20583;-74
2021/06/21 07:55:15;;;;;;;5.68;5.18;;;;;;;22.73;75.23;99727.41;5075345;28;20215;-74
2021/06/21 07:57:42;;;;;;;5.72;3.88;;;;;;;22.76;74.62;99726.97;5070055;28;20237;-74
2021/06/21 08:00:09;;;;;;;7.05;4.00;;;;;;;22.77;74.15;99731.41;5080070;28;20589;-74
2021/06/21 08:02:36;;;;;;;5.57;4.68;;;;;;;22.82;74.57;99737.09;5087314;28;20269;-75
2021/06/21 08:05:03;;;;;;;7.50;4.25;;;;;;;22.92;74.45;99725.06;5082946;28;20200;-73
2021/06/21 08:07:31;;;;;;;7.80;3.92;;;;;;;22.99;74.45;99725.91;5087388;28;20234;-74
2021/06/21 08:09:57;;;;;;;7.80;4.57;;;;;;;23.09;74.21;99726.41;5079530;28;20682;-73
2021/06/21 08:12:24;;;;;;;6.15;3.10;;;;;;;23.16;73.24;99735.41;5100134;28;20207;-74
2021/06/21 08:14:50;;;;;;;7.00;3.40;;;;;;;23.14;71.96;99742.91;5076929;28;20205;-74
2021/06/21 08:17:17;;;;;;;4.82;2.70;;;;;;;23.14;71.65;99729.34;5072088;28;20224;-74
2021/06/21 08:19:45;;;;;;;5.32;2.78;;;;;;;23.08;70.87;99728.28;5075944;28;20226;-73
2021/06/21 08:22:11;;;;;;;4.55;2.50;;;;;;;23.05;70.11;99733.28;5069706;28;20208;-75
2021/06/21 08:24:41;;;;;;;5.53;2.60;;;;;;;23.09;70.05;99731.84;5076281;28;20200;-73
2021/06/21 08:27:08;;;;;;;4.68;2.20;;;;;;;23.14;69.27;99732.06;5077796;28;20225;-74
2021/06/21 08:29:35;;;;;;;4.10;2.33;;;;;;;23.22;69.12;99726.47;5079862;28;20212;-73
2021/06/21 08:32:02;;;;;;;6.72;2.95;;;;;;;23.27;68.28;99721.28;5085156;28;20208;-73
2021/06/21 08:34:29;;;;;;;7.20;2.53;;;;;;;23.37;68.37;99732.59;5082972;28;20203;-72
2021/06/21 08:36:55;;;;;;;6.88;2.33;;;;;;;23.56;67.75;99724.75;5079782;28;20218;-72
2021/06/21 08:39:22;;;;;;;4.63;2.30;;;;;;;23.70;67.08;99721.03;5076036;28;20205;-72
2021/06/21 08:41:50;;;;;;;7.97;2.45;;;;;;;23.89;66.62;99733.84;5075863;28;20288;-72
2021/06/21 08:44:17;;;;;;;5.30;2.20;;;;;;;24.05;65.44;99730.75;5081574;28;20214;-72
2021/06/21 08:46:43;;;;;;;8.05;2.13;;;;;;;24.16;63.79;99738.31;5078152;28;20250;-72
2021/06/21 08:49:11;;;;;;;8.48;2.38;;;;;;;24.31;62.99;99738.16;5079983;28;20557;-72
2021/06/21 08:51:40;;;;;;;4.38;2.00;;;;;;;24.45;61.99;99736.28;5080411;28;20231;-72
2021/06/21 08:54:07;;;;;;;5.35;2.10;;;;;;;24.57;61.71;99734.59;5087165;28;20201;-72
2021/06/21 08:56:34;;;;;;;5.15;2.20;;;;;;;24.69;60.96;99732.94;5076141;28;20224;-74
2021/06/21 08:59:05;;;;;;;6.93;2.10;;;;;;;24.86;60.48;99730.59;5078131;28;20250;-72
2021/06/21 09:01:32;;;;;;;4.20;1.50;;;;;;;24.97;60.11;99732.72;5087853;28;20729;-72
2021/06/21 09:04:00;;;;;;;6.43;2.55;;;;;;;25.20;61.10;99724.06;5088225;28;20203;-72
2021/06/21 09:06:26;;;;;;;6.47;2.30;;;;;;;25.47;60.64;99728.34;5092551;28;20200;-73
2021/06/21 09:08:55;;;;;;;6.35;1.90;;;;;;;25.74;60.35;99718.22;5074509;28;20217;-72
2021/06/21 09:11:21;;;;;;;5.20;1.92;;;;;;;25.88;59.41;99738.06;5078784;28;20211;-72
2021/06/21 09:13:50;;;;;;;11.05;1.92;;;;;;;25.93;57.90;99741.81;5086569;28;20559;-72
2021/06/21 09:16:19;;;;;;;8.77;2.22;;;;;;;25.99;57.80;99731.91;5090201;28;20204;-70
2021/06/21 09:18:46;;;;;;;5.03;2.00;;;;;;;26.13;57.59;99730.78;5081576;28;20670;-73
2021/06/21 09:21:28;;;;;;;7.18;1.92;;;;;;;26.27;56.78;99723.31;5076557;28;20313;-73
2021/06/21 09:23:57;;;;;;;4.85;2.03;;;;;;;26.35;55.34;99720.34;5076031;28;20207;-72
2021/06/21 09:26:26;;;;;;;5.72;1.98;;;;;;;26.41;55.03;99724.94;5083949;28;20207;-74
2021/06/21 09:28:53;;;;;;;5.15;1.67;;;;;;;26.43;54.92;99724.69;5077177;28;20212;-72
2021/06/21 09:31:22;;;;;;;4.07;2.10;;;;;;;26.43;54.84;99730.16;5090136;28;20195;-72
2021/06/21 09:33:49;;;;;;;5.03;1.90;;;;;;;26.40;55.01;99727.88;5088443;28;20201;-72
2021/06/21 09:36:33;;;;;;;6.35;1.98;;;;;;;26.44;55.58;99735.41;5080998;28;20204;-74
2021/06/21 09:39:17;;;;;;;5.45;1.92;;;;;;;26.58;55.34;99733.41;5078641;28;20251;-72
2021/06/21 09:41:44;;;;;;;6.78;2.08;;;;;;;26.74;54.21;99737.44;5074089;28;20225;-73
2021/06/21 09:44:32;;;;;;;4.90;2.15;;;;;;;26.85;53.41;99739.47;5087614;28;20201;-73
2021/06/21 09:47:20;;;;;;;6.45;2.10;;;;;;;26.96;52.62;99742.31;5087625;28;20617;-72
2021/06/21 09:50:15;;;;;;;5.57;2.08;;;;;;;27.08;53.11;99736.09;5087105;28;20204;-72
2021/06/21 09:52:44;;;;;;;4.47;1.73;;;;;;;27.21;53.11;99734.09;5083074;28;20204;-74
2021/06/21 09:55:18;;;;;;;4.05;2.13;;;;;;;27.40;53.35;99737.66;5083425;28;20291;-73
2021/06/21 09:57:46;;;;;;;5.55;2.00;;;;;;;27.59;52.59;99742.03;5091845;28;20227;-73
2021/06/21 10:00:15;;;;;;;3.85;1.90;;;;;;;27.76;51.84;99738.72;5078065;28;20228;-73
2021/06/21 10:02:43;;;;;;;5.95;2.08;;;;;;;27.79;51.71;99730.00;5090704;28;20204;-73
2021/06/21 10:05:21;;;;;;;5.22;1.85;;;;;;;27.82;51.47;99732.28;5076558;28;20201;-72
2021/06/21 10:07:48;;;;;;;4.90;1.60;;;;;;;27.87;51.02;99729.69;5080167;28;20221;-72
2021/06/21 10:10:18;;;;;;;5.15;2.00;;;;;;;27.89;51.56;99739.34;5075550;28;20200;-72
2021/06/21 10:12:45;;;;;;;5.43;1.70;;;;;;;27.94;50.78;99742.25;5086611;28;20686;-72
2021/06/21 10:15:13;;;;;;;4.00;1.77;;;;;;;27.98;50.72;99748.06;5085311;28;20208;-72
2021/06/21 10:17:40;;;;;;;3.83;1.70;;;;;;;27.96;50.09;99750.19;5074923;28;20224;-72
2021/06/21 10:20:10;;;;;;;5.43;1.80;;;;;;;27.97;49.83;99754.59;5077831;28;20250;-72
2021/06/21 10:22:38;;;;;;;5.47;1.90;;;;;;;27.95;49.49;99759.47;5088462;28;20211;-72
2021/06/21 10:25:06;;;;;;;4.55;1.73;;;;;;;27.88;49.25;99766.94;5082668;28;20209;-73
2021/06/21 10:27:34;;;;;;;3.58;1.30;;;;;;;27.80;49.46;99757.13;5072385;28;20228;-72
2021/06/21 10:30:00;;;;;;;6.72;1.77;;;;;;;27.77;49.63;99773.22;5080441;28;20211;-72
2021/06/21 10:32:29;;;;;;;3.85;1.98;;;;;;;27.74;49.25;99762.72;5082492;28;20209;-72
2021/06/21 10:34:57;;;;;;;5.47;2.10;;;;;;;27.70;49.86;99761.50;5074817;28;20687;-72
2021/06/21 10:37:27;;;;;;;5.72;2.00;;;;;;;27.71;50.18;99769.47;5082638;28;20232;-73
2021/06/21 10:39:59;;;;;;;2.97;1.73;;;;;;;27.71;50.13;99754.97;5083489;28;20684;-70
2021/06/21 10:42:28;;;;;;;3.67;1.50;;;;;;;27.63;49.50;99765.16;5074257;28;20684;-72
2021/06/21 10:44:57;;;;;;;3.53;1.63;;;;;;;27.52;49.15;99763.16;5073931;28;20208;-73
2021/06/21 10:47:25;;;;;;;3.42;1.65;;;;;;;27.39;49.50;99765.22;5075666;28;20518;-74
2021/06/21 10:49:57;;;;;;;4.93;1.92;;;;;;;27.30;50.00;99759.19;5078649;28;20654;-73
2021/06/21 10:52:37;;;;;;;4.25;2.00;;;;;;;27.22;50.67;99770.44;5073539;28;20205;-74
2021/06/21 10:55:36;;;;;;;4.93;1.70;;;;;;;27.14;50.67;99768.00;5076767;28;20196;-74
2021/06/21 10:58:06;;;;;;;3.88;1.42;;;;;;;27.02;50.87;99764.34;5075197;28;20236;-73
2021/06/21 11:00:35;;;;;;;4.45;1.42;;;;;;;26.98;51.27;99763.13;5081137;28;20230;-72
2021/06/21 11:03:02;;;;;;;3.03;1.48;;;;;;;26.92;51.42;99771.13;5084076;28;20657;-72
2021/06/21 11:05:34;;;;;;;4.82;1.50;;;;;;;26.87;51.79;99767.41;5086474;28;20204;-72
2021/06/21 11:08:16;;;;;;;3.17;1.77;;;;;;;26.82;51.78;99768.06;5073788;28;20225;-72
2021/06/21 11:10:44;;;;;;;7.10;2.08;;;;;;;26.86;52.40;99766.56;5074460;28;20802;-72
2021/06/21 11:13:40;;;;;;;3.22;1.77;;;;;;;26.96;52.75;99761.44;5084123;28;20200;-72
2021/06/21 11:16:24;;;;;;;2.63;1.50;;;;;;;27.03;51.93;99772.31;5077381;28;20232;-73
2021/06/21 11:19:27;;;;;;;3.83;1.58;;;;;;;27.06;51.85;99776.47;5086150;28;20670;-73
2021/06/21 11:21:56;;;;;;;4.63;1.33;;;;;;;27.10;51.96;99764.88;5081371;28;20292;-73
2021/06/21 11:24:50;;;;;;;2.92;1.80;;;;;;;27.13;51.34;99766.31;5088769;28;20712;-72
2021/06/21 11:27:18;;;;;;;5.18;1.70;;;;;;;27.07;50.78;99769.94;5082960;28;20250;-74
2021/06/21 11:29:47;;;;;;;3.63;1.70;;;;;;;27.02;50.92;99765.19;5077628;28;20196;-73
2021/06/21 11:32:14;;;;;;;4.72;1.63;;;;;;;27.00;51.50;99767.31;5083373;28;20192;-74
2021/06/21 11:34:47;;;;;;;3.85;1.40;;;;;;;27.05;51.35;99769.38;5074256;28;20218;-74
2021/06/21 11:37:29;;;;;;;3.67;1.42;;;;;;;27.06;51.54;99768.28;5076073;28;20282;-72